Airfield :
LOGIN :

Register | Disclaimer

   EN    FR    IT 

 










Legend :    VFR   Marginal VFR   IFR   Intensive IFR   Very Intensive IFR
Visi :
Ceiling :
>= 8 km
>= 3000ft
5 to 8 km
1000 to 3000 ft
1500m to 5 km
500 to 1000 ft
800 to 1500m
200 to 500 ft
< 800m
< 200 ft
Symbols :   Thunderstorms  Fog  Heavy snow  Heavy precipitations  Wind > 20 kt
SIGMETs :     Misc.  Thunderstorms  Icing  Turbulence  Mountain Waves  Volcanic Ashes






- Airport Elevation : -11 ft
- IATA code : AMS


EHAM - Amsterdam Schiphol

CURRENT METAR :
  • 241255Z 17008KT 6000 SCT009 BKN017 05/03 Q1022 NOSIG

EXPIRED METARs :
  • 241225Z 19006KT 6000 SCT007 BKN017 04/02 Q1023 NOSIG
  • 241155Z 19006KT 6000 SCT007 BKN017 04/02 Q1023 TEMPO BKN007
  • 241125Z 19006KT 6000 SCT007 BKN018 04/02 Q1023 TEMPO BKN007
  • 241055Z 18007KT 6000 BR SCT007 BKN022 04/02 Q1023 TEMPO BKN007
  • 241025Z 17008KT 5000 BR SCT008 BKN024 04/02 Q1024 TEMPO 4500

TAF TAF EHAM
Valid from the 24 at 12:00 until the 25 at 18:00 UTC


241110Z 2412/2518 19007KT 5000 BR FEW008 BKN020
BECMG 2412/2415 7000 NSW
PROB30
TEMPO 2412/2508 4500 -DZ BR BKN008
BECMG 2418/2421 4500 BR
BECMG 2509/2512 8000 NSW



MET'MAP, your aeronautical weather chart ! - Copyright ORBIFLY December 2007 - Disclaimer

ORBIFLY MET'MAP TEAM :

Programming & Development : Alexandra Zaïnal
Concept & original design : Baudouin d'Aumeries
Assistance for programming : Marc-Olivier Méhu
Technical & hardware support : Manuel Goepfert

Contact : metmap@orbifly.com




SOURCES & CREDITS :

   NOAA